Time;durP1;ratioP1;P1;durP2;ratioP2;P2;SDS_P1;SDS_P2;PMS_P1;PMS_P2;Temp;Humidity;BMP_temperature;BMP_pressure;BME280_temperature;BME280_humidity;BME280_pressure;Samples;Min_cycle;Max_cycle;Signal;HPM_P1;HPM_P2
2022/09/24 00:00:16;;;;;;;;;12.67;11.00;;;;;17.70;52.51;100500.47;5057897;28;45517;-66
2022/09/24 00:02:42;;;;;;;;;8.33;8.33;;;;;17.69;52.45;100495.25;5056525;28;45449;-65
2022/09/24 00:05:08;;;;;;;;;9.00;8.00;;;;;17.63;52.17;100494.72;5057699;28;45440;-66
2022/09/24 00:07:33;;;;;;;;;8.67;8.00;;;;;17.54;52.53;100486.47;5057824;28;45476;-66
2022/09/24 00:09:58;;;;;;;;;13.00;10.67;;;;;17.56;52.49;100488.09;5056980;28;47713;-64
2022/09/24 00:12:24;;;;;;;;;13.00;10.33;;;;;17.58;52.64;100493.31;5039289;28;45518;-65
2022/09/24 00:14:50;;;;;;;;;9.67;7.33;;;;;17.58;52.77;100491.50;5058279;28;45529;-66
2022/09/24 00:17:15;;;;;;;;;13.67;12.67;;;;;17.57;53.53;100491.59;5056815;28;47655;-67
2022/09/24 00:19:40;;;;;;;;;9.00;9.00;;;;;17.58;53.78;100490.66;5038743;28;45491;-67
2022/09/24 00:22:06;;;;;;;;;12.00;11.67;;;;;17.57;53.40;100487.16;5056951;28;45412;-66
2022/09/24 00:27:15;;;;;;;;;12.00;9.00;;;;;17.51;53.04;100474.25;5056187;28;45650;-65
2022/09/24 00:29:41;;;;;;;;;8.00;8.00;;;;;17.57;53.08;100486.28;5056807;28;45881;-65
2022/09/24 00:32:07;;;;;;;;;11.00;8.00;;;;;17.56;53.21;100487.22;5039554;28;45402;-66
2022/09/24 00:34:33;;;;;;;;;10.33;10.33;;;;;17.54;52.89;100476.69;5057444;28;45356;-66
2022/09/24 00:36:58;;;;;;;;;12.33;11.67;;;;;17.55;53.28;100485.53;5057478;28;46482;-66
2022/09/24 00:39:24;;;;;;;;;9.67;9.67;;;;;17.56;53.14;100480.09;5057591;28;45367;-64
2022/09/24 00:41:49;;;;;;;;;13.00;12.33;;;;;17.40;54.15;100460.81;5057417;28;45386;-65
2022/09/24 00:44:45;;;;;;;;;12.00;11.67;;;;;17.48;53.78;100490.41;5038099;28;45612;-65
2022/09/24 00:47:26;;;;;;;;;12.67;10.67;;;;;17.48;53.56;100485.06;5037481;28;47490;-65
2022/09/24 00:50:04;;;;;;;;;10.33;10.33;;;;;17.50;53.41;100479.69;5057015;28;45395;-66
2022/09/24 00:52:30;;;;;;;;;10.33;10.33;;;;;17.45;53.91;100470.19;5037730;28;45462;-66
2022/09/24 00:54:55;;;;;;;;;18.33;14.00;;;;;17.48;53.96;100473.59;5057123;28;45451;-64
2022/09/24 00:57:22;;;;;;;;;13.33;13.33;;;;;17.52;53.77;100472.47;5057141;28;46463;-66
2022/09/24 00:59:47;;;;;;;;;13.33;12.33;;;;;17.50;53.96;100477.00;5056626;28;45513;-65
2022/09/24 01:02:13;;;;;;;;;10.33;10.33;;;;;17.48;54.05;100486.91;5057097;28;45493;-65
2022/09/24 01:04:38;;;;;;;;;12.33;12.33;;;;;17.49;54.23;100477.94;5038636;28;45426;-66
2022/09/24 01:07:03;;;;;;;;;10.67;10.67;;;;;17.51;53.96;100484.03;5047284;28;53777;-65
2022/09/24 01:09:29;;;;;;;;;13.33;12.67;;;;;17.51;54.02;100476.03;5036667;28;50140;-66
2022/09/24 01:12:03;;;;;;;;;11.67;11.67;;;;;17.53;53.74;100480.31;5037141;28;45434;-64
2022/09/24 01:14:57;;;;;;;;;11.33;11.33;;;;;17.52;53.74;100480.44;5036763;28;45495;-65
2022/09/24 01:17:40;;;;;;;;;11.33;11.33;;;;;17.48;52.97;100485.06;5036737;28;45393;-65
2022/09/24 01:20:24;;;;;;;;;9.33;9.33;;;;;17.48;53.67;100484.22;5036890;28;45452;-65
2022/09/24 01:23:10;;;;;;;;;9.33;9.33;;;;;17.48;54.23;100470.94;5048224;28;45582;-65
2022/09/24 01:26:06;;;;;;;;;11.33;11.33;;;;;17.43;54.62;100480.06;5057423;28;45422;-64
2022/09/24 01:29:04;;;;;;;;;13.00;10.33;;;;;17.41;54.54;100473.16;5056277;28;46201;-65
2022/09/24 01:31:32;;;;;;;;;11.67;11.67;;;;;17.43;54.70;100476.56;5056770;28;45482;-65
2022/09/24 01:34:04;;;;;;;;;14.00;11.67;;;;;17.40;54.92;100456.34;5056842;28;45406;-64
2022/09/24 01:36:33;;;;;;;;;11.33;11.33;;;;;17.42;55.40;100459.75;5056801;28;45390;-66
2022/09/24 01:39:01;;;;;;;;;8.33;8.00;;;;;17.36;56.67;100464.63;5056749;28;46280;-66
2022/09/24 01:41:27;;;;;;;;;14.33;11.33;;;;;17.27;56.43;100457.25;5056498;28;45434;-65
2022/09/24 01:43:53;;;;;;;;;11.67;11.67;;;;;17.25;57.32;100467.13;5055027;28;45482;-66
2022/09/24 01:46:20;;;;;;;;;12.67;12.33;;;;;17.26;57.08;100463.53;5056626;28;45433;-66
2022/09/24 01:48:45;;;;;;;;;12.67;12.33;;;;;17.26;57.48;100463.53;5056443;28;46061;-67
2022/09/24 01:51:29;;;;;;;;;10.67;10.67;;;;;17.22;57.02;100454.88;5055836;28;45339;-64
2022/09/24 01:54:02;;;;;;;;;10.33;10.33;;;;;17.27;56.94;100451.94;5036476;28;45504;-64
2022/09/24 01:56:42;;;;;;;;;12.67;10.33;;;;;17.29;57.13;100447.38;5037570;28;45553;-64
2022/09/24 01:59:21;;;;;;;;;13.33;12.67;;;;;17.29;57.60;100447.38;5036281;28;46031;-65
2022/09/24 02:02:22;;;;;;;;;11.00;10.33;;;;;17.28;57.54;100446.53;5055927;28;45417;-64
2022/09/24 02:04:56;;;;;;;;;15.00;11.67;;;;;17.28;57.09;100445.69;5032726;28;45360;-65
2022/09/24 02:07:51;;;;;;;;;13.67;11.00;;;;;17.25;57.31;100440.53;5056201;28;45355;-67
2022/09/24 02:10:19;;;;;;;;;12.67;11.67;;;;;17.21;58.63;100440.75;5055755;28;45360;-65
2022/09/24 02:12:51;;;;;;;;;14.33;14.33;;;;;17.13;58.77;100432.41;5037976;28;45494;-66
2022/09/24 02:15:45;;;;;;;;;12.67;12.67;;;;;17.21;58.35;100431.94;5055160;28;45501;-65
2022/09/24 02:18:15;;;;;;;;;16.00;12.00;;;;;17.25;59.34;100429.91;5053833;28;45620;-65
2022/09/24 02:20:42;;;;;;;;;14.00;14.00;;;;;17.21;59.14;100419.47;5037127;28;45783;-66
2022/09/24 02:23:10;;;;;;;;;13.67;12.67;;;;;17.26;58.91;100431.63;5054464;28;45454;-67
2022/09/24 02:25:49;;;;;;;;;13.67;11.67;;;;;17.21;58.68;100423.94;5056373;28;45418;-65
2022/09/24 02:28:16;;;;;;;;;10.67;10.67;;;;;17.20;58.68;100422.25;5055837;28;45463;-62
2022/09/24 02:30:50;;;;;;;;;10.33;10.33;;;;;17.17;59.27;100423.31;5053248;28;46679;-65
2022/09/24 02:36:03;;;;;;;;;14.00;12.33;;;;;17.16;59.40;100407.47;5056060;28;45469;-65
2022/09/24 02:38:28;;;;;;;;;11.00;10.00;;;;;17.18;59.71;100409.06;5056153;28;45463;-65
2022/09/24 02:40:55;;;;;;;;;9.67;9.67;;;;;17.18;58.17;100413.53;5054474;28;45626;-65
2022/09/24 02:43:20;;;;;;;;;12.33;10.67;;;;;17.15;58.80;100413.75;5055678;28;45403;-65
2022/09/24 02:45:45;;;;;;;;;13.67;9.67;;;;;17.10;59.11;100403.41;5055866;28;45762;-65
2022/09/24 02:48:11;;;;;;;;;10.67;9.00;;;;;17.11;59.06;100404.25;5054136;28;45467;-66
2022/09/24 02:50:36;;;;;;;;;13.00;12.00;;;;;17.08;59.74;100405.28;5055711;28;45424;-65
2022/09/24 02:53:01;;;;;;;;;11.33;10.67;;;;;17.02;59.46;100395.06;5055466;28;49965;-65
2022/09/24 02:55:27;;;;;;;;;11.67;11.67;;;;;17.02;59.71;100403.06;5055112;28;45344;-66
2022/09/24 02:57:52;;;;;;;;;15.33;12.67;;;;;17.03;59.72;100396.78;5055779;28;45645;-64
2022/09/24 03:00:19;;;;;;;;;13.33;13.33;;;;;17.04;59.66;100398.50;5055748;28;46363;-65
2022/09/24 03:02:46;;;;;;;;;11.33;10.00;;;;;17.04;59.49;100395.00;5055513;28;45467;-66
2022/09/24 03:05:12;;;;;;;;;17.33;14.00;;;;;17.09;59.48;100403.50;5036883;28;45571;-64
2022/09/24 03:07:37;;;;;;;;;14.00;14.00;;;;;17.06;60.18;100393.06;5055485;28;45514;-66
2022/09/24 03:10:02;;;;;;;;;16.00;13.67;;;;;17.04;60.51;100393.19;5054446;28;46276;-65
2022/09/24 03:12:28;;;;;;;;;13.33;11.67;;;;;17.05;60.71;100396.69;5055452;28;45480;-65
2022/09/24 03:14:53;;;;;;;;;12.00;10.67;;;;;17.06;60.23;100387.75;5056243;28;45454;-66
2022/09/24 03:17:18;;;;;;;;;12.00;12.00;;;;;17.00;59.56;100378.38;5058971;28;45588;-66
2022/09/24 03:19:44;;;;;;;;;12.33;11.00;;;;;17.04;59.85;100389.69;5058959;28;45471;-66
2022/09/24 03:22:09;;;;;;;;;11.67;11.67;;;;;16.89;59.35;100371.13;5058360;28;50902;-67
2022/09/24 03:24:34;;;;;;;;;8.33;8.33;;;;;16.98;59.02;100385.63;5057707;28;45410;-66
2022/09/24 03:26:59;;;;;;;;;11.00;11.00;;;;;16.98;59.86;100386.47;5058856;28;45363;-65
2022/09/24 03:32:08;;;;;;;;;14.33;12.00;;;;;16.99;59.58;100385.50;5059120;28;45528;-65
2022/09/24 03:34:34;;;;;;;;;12.33;11.67;;;;;16.98;59.70;100386.47;5058596;28;45422;-67
2022/09/24 03:36:59;;;;;;;;;7.00;7.00;;;;;16.94;59.84;100381.44;5054849;28;45347;-65
2022/09/24 03:39:24;;;;;;;;;9.33;9.33;;;;;16.94;59.25;100381.44;5038011;28;45403;-65
2022/09/24 03:41:49;;;;;;;;;12.00;12.00;;;;;16.93;58.62;100387.72;5038083;28;58411;-66
2022/09/24 03:44:15;;;;;;;;;10.33;8.67;;;;;16.91;59.54;100382.50;5038392;28;47153;-67
2022/09/24 03:46:41;;;;;;;;;14.33;14.33;;;;;16.86;58.83;100376.63;5020297;28;45839;-67
2022/09/24 03:49:06;;;;;;;;;12.33;10.00;;;;;16.85;58.96;100374.94;5038326;28;48511;-67
2022/09/24 03:51:31;;;;;;;;;9.33;9.33;;;;;16.82;59.12;100380.44;5040956;28;45360;-65
2022/09/24 03:53:56;;;;;;;;;10.33;10.33;;;;;16.75;58.43;100369.31;5058469;28;45371;-66
2022/09/24 03:56:22;;;;;;;;;7.67;7.67;;;;;16.76;58.49;100367.50;5057637;28;45358;-67
2022/09/24 03:58:47;;;;;;;;;11.33;10.67;;;;;16.71;58.72;100365.19;5058295;28;46201;-66
2022/09/24 04:01:19;;;;;;;;;13.33;13.33;;;;;16.70;59.96;100375.88;5057726;28;45452;-65
2022/09/24 04:03:45;;;;;;;;;10.00;9.33;;;;;16.73;59.88;100370.38;5058449;28;45381;-65
2022/09/24 04:06:11;;;;;;;;;10.33;9.00;;;;;16.71;59.30;100361.66;5055220;28;45366;-66
2022/09/24 04:08:36;;;;;;;;;9.67;9.67;;;;;16.73;59.27;100363.25;5057802;28;45422;-66
2022/09/24 04:11:02;;;;;;;;;11.00;11.00;;;;;16.75;59.02;100365.81;5058150;28;45474;-65
2022/09/24 04:13:27;;;;;;;;;13.00;10.33;;;;;16.75;59.87;100363.16;5058050;28;45388;-66
2022/09/24 04:15:53;;;;;;;;;12.00;11.33;;;;;16.73;60.02;100362.41;5058076;28;45374;-66
2022/09/24 04:18:19;;;;;;;;;9.00;8.67;;;;;16.71;59.61;100356.34;5058060;28;46472;-66
2022/09/24 04:20:45;;;;;;;;;8.67;8.67;;;;;16.72;59.67;100371.34;5057522;28;45956;-66
2022/09/24 04:23:11;;;;;;;;;12.00;11.00;;;;;16.69;59.30;100363.56;5057572;28;45412;-65
2022/09/24 04:25:36;;;;;;;;;12.33;11.33;;;;;16.65;59.47;100357.59;5040234;28;45479;-65
2022/09/24 04:28:05;;;;;;;;;11.00;11.00;;;;;16.64;60.70;100376.28;5057477;28;45526;-65
2022/09/24 04:30:32;;;;;;;;;10.67;10.67;;;;;16.62;59.92;100370.22;5057717;28;45393;-65
2022/09/24 04:32:59;;;;;;;;;10.00;9.00;;;;;16.53;61.41;100369.84;5035955;28;45482;-65
2022/09/24 04:35:25;;;;;;;;;9.67;9.67;;;;;16.51;59.67;100361.13;5019413;28;45683;-67
2022/09/24 04:37:51;;;;;;;;;12.67;11.33;;;;;16.59;60.05;100365.97;5036756;28;45557;-66
2022/09/24 04:40:16;;;;;;;;;12.00;12.00;;;;;16.56;59.85;100361.69;5037203;28;45418;-65
2022/09/24 04:42:47;;;;;;;;;12.33;11.33;;;;;16.61;60.15;100371.19;5037380;28;45473;-66
2022/09/24 04:45:16;;;;;;;;;13.67;12.00;;;;;16.61;59.99;100363.22;5037629;28;45338;-65
2022/09/24 04:47:42;;;;;;;;;15.33;11.33;;;;;16.61;59.39;100369.38;5031253;28;45717;-66
2022/09/24 04:50:10;;;;;;;;;10.67;10.67;;;;;16.54;60.41;100366.25;5057564;28;45489;-64
2022/09/24 04:52:36;;;;;;;;;13.00;11.67;;;;;16.48;59.93;100366.63;5057359;28;45406;-65
2022/09/24 04:55:02;;;;;;;;;11.67;10.00;;;;;16.47;59.53;100367.59;5057392;28;45384;-66
2022/09/24 04:57:33;;;;;;;;;10.33;9.67;;;;;16.50;59.66;100378.03;5057591;28;45402;-65
2022/09/24 04:59:59;;;;;;;;;9.67;8.67;;;;;16.44;60.23;100370.47;5046894;28;45555;-66
2022/09/24 05:02:24;;;;;;;;;14.33;12.33;;;;;16.45;60.86;100376.63;5037180;28;45394;-67
2022/09/24 05:04:50;;;;;;;;;15.67;12.67;;;;;16.41;61.02;100375.09;5037136;28;45638;-66
2022/09/24 05:07:15;;;;;;;;;9.67;9.67;;;;;16.39;60.02;100371.66;5036556;28;45368;-65
2022/09/24 05:09:40;;;;;;;;;8.33;5.67;;;;;16.38;60.80;100368.16;5044328;28;45736;-64
2022/09/24 05:12:06;;;;;;;;;11.67;11.67;;;;;16.38;59.86;100365.50;5057178;28;45430;-65
2022/09/24 05:14:31;;;;;;;;;11.00;11.00;;;;;16.42;60.35;100382.97;5039210;28;45431;-66
2022/09/24 05:16:56;;;;;;;;;9.67;9.67;;;;;16.39;60.88;100372.56;5056711;28;45312;-66
2022/09/24 05:19:22;;;;;;;;;9.67;9.67;;;;;16.34;60.41;100374.63;5056652;28;45415;-65
2022/09/24 05:21:48;;;;;;;;;11.33;11.33;;;;;16.41;60.39;100385.72;5057006;28;45339;-65
2022/09/24 05:24:13;;;;;;;;;11.67;8.67;;;;;16.43;61.24;100389.97;5056267;28;45358;-66
2022/09/24 05:29:22;;;;;;;;;14.00;13.33;;;;;16.42;61.05;100388.28;5056879;28;45316;-66
2022/09/24 05:31:48;;;;;;;;;13.33;11.33;;;;;16.40;60.35;100389.31;5056495;28;45463;-66
2022/09/24 05:34:14;;;;;;;;;10.67;10.33;;;;;16.46;61.33;100395.06;5056434;28;45447;-66
2022/09/24 05:36:42;;;;;;;;;9.67;9.00;;;;;16.49;60.47;100392.22;5056539;28;46105;-66
2022/09/24 05:39:11;;;;;;;;;12.00;11.33;;;;;16.46;60.81;100392.44;5055055;28;45481;-64
2022/09/24 05:41:38;;;;;;;;;11.00;11.00;;;;;16.40;60.64;100384.84;5055459;28;45452;-66
2022/09/24 05:44:04;;;;;;;;;12.00;9.67;;;;;16.52;60.74;100401.81;5056571;28;45489;-65
2022/09/24 05:46:30;;;;;;;;;13.67;10.33;;;;;16.51;61.06;100392.16;5056277;28;45994;-64
2022/09/24 05:48:55;;;;;;;;;14.67;13.33;;;;;16.53;60.26;100393.75;5056395;28;45507;-65
2022/09/24 05:51:21;;;;;;;;;10.00;9.00;;;;;16.53;61.09;100400.88;5037967;28;45380;-64
2022/09/24 05:53:47;;;;;;;;;11.00;11.00;;;;;16.43;61.49;100399.75;5055575;28;45594;-65
2022/09/24 05:56:13;;;;;;;;;11.67;11.67;;;;;16.43;62.09;100397.94;5053231;28;46038;-66
2022/09/24 05:58:38;;;;;;;;;11.00;11.00;;;;;16.45;61.32;100397.84;5054960;28;45373;-64
2022/09/24 06:01:03;;;;;;;;;9.67;9.67;;;;;16.50;60.91;100406.38;5055303;28;45430;-64
2022/09/24 06:03:30;;;;;;;;;10.00;8.33;;;;;16.45;61.11;100388.06;5055767;28;45465;-66
2022/09/24 06:05:58;;;;;;;;;11.00;11.00;;;;;16.49;61.43;100399.34;5054987;28;45389;-65
2022/09/24 06:08:24;;;;;;;;;11.67;9.00;;;;;16.48;62.26;100408.28;5037218;28;45349;-61
2022/09/24 06:10:49;;;;;;;;;8.00;8.00;;;;;16.50;61.85;100406.38;5054830;28;45407;-62
2022/09/24 06:13:19;;;;;;;;;12.33;11.67;;;;;16.44;62.36;100399.66;5045549;28;45451;-63
2022/09/24 06:15:45;;;;;;;;;13.67;13.67;;;;;16.48;62.50;100416.22;5055756;28;46094;-61
2022/09/24 06:18:11;;;;;;;;;10.00;7.33;;;;;16.57;61.74;100413.84;5037659;28;45426;-63
2022/09/24 06:20:37;;;;;;;;;12.33;10.33;;;;;16.59;61.51;100415.56;5053553;28;45384;-61
2022/09/24 06:23:02;;;;;;;;;7.67;6.67;;;;;16.59;62.52;100412.91;5055717;28;45661;-61
2022/09/24 06:25:29;;;;;;;;;9.00;9.00;;;;;16.58;61.96;100422.69;5054865;28;45510;-61
2022/09/24 06:28:03;;;;;;;;;10.67;10.33;;;;;16.49;62.57;100418.78;5037777;28;45356;-63
2022/09/24 06:30:34;;;;;;;;;8.00;8.00;;;;;16.43;63.02;100415.66;5053013;28;45466;-66
2022/09/24 06:33:04;;;;;;;;;11.00;9.33;;;;;16.45;63.23;100422.59;5046798;28;45479;-66
2022/09/24 06:35:41;;;;;;;;;10.67;10.67;;;;;16.49;63.15;100425.88;5039823;28;45471;-65
2022/09/24 06:38:10;;;;;;;;;9.33;9.33;;;;;16.49;62.75;100415.28;5021192;28;45403;-66
2022/09/24 06:40:36;;;;;;;;;9.33;9.33;;;;;16.53;62.97;100425.63;5038049;28;45348;-66
2022/09/24 06:43:01;;;;;;;;;9.33;9.33;;;;;16.54;62.46;100429.97;5044004;28;45384;-65
2022/09/24 06:45:27;;;;;;;;;11.00;10.00;;;;;16.53;63.19;100428.25;5035299;28;45390;-66
2022/09/24 06:47:57;;;;;;;;;9.67;9.67;;;;;16.50;63.01;100428.47;5035786;28;45505;-65
2022/09/24 06:50:25;;;;;;;;;8.33;7.67;;;;;16.53;63.36;100436.22;5041746;28;45451;-65
2022/09/24 06:52:51;;;;;;;;;7.00;7.00;;;;;16.51;62.68;100427.50;5059285;28;45563;-66
2022/09/24 06:55:17;;;;;;;;;11.33;11.33;;;;;16.53;62.62;100433.56;5055617;28;45489;-66
2022/09/24 06:57:43;;;;;;;;;9.00;8.67;;;;;16.55;63.21;100431.69;5059338;28;45393;-65
2022/09/24 07:00:09;;;;;;;;;10.33;9.33;;;;;16.46;63.10;100424.28;5047418;28;45393;-66
2022/09/24 07:02:35;;;;;;;;;10.33;10.33;;;;;16.45;62.70;100429.72;5053136;28;45648;-66
2022/09/24 07:05:00;;;;;;;;;10.33;9.00;;;;;16.47;62.64;100428.66;5030322;28;45414;-65
2022/09/24 07:07:29;;;;;;;;;11.33;10.33;;;;;16.48;63.40;100442.78;5052058;28;45560;-65
2022/09/24 07:09:55;;;;;;;;;10.33;10.33;;;;;16.44;63.15;100439.47;5039145;28;45509;-65
2022/09/24 07:12:21;;;;;;;;;9.33;9.33;;;;;16.45;63.07;100440.31;5045655;28;45854;-65
2022/09/24 07:14:47;;;;;;;;;7.00;7.00;;;;;16.44;63.36;100439.47;5058930;28;46430;-65
2022/09/24 07:17:12;;;;;;;;;6.67;6.67;;;;;16.40;62.79;100437.09;5054420;28;45380;-65
2022/09/24 07:19:37;;;;;;;;;10.67;10.67;;;;;16.38;63.45;100434.53;5058261;28;45463;-65
2022/09/24 07:22:03;;;;;;;;;12.67;10.00;;;;;16.36;63.64;100425.78;5053235;28;45691;-66
2022/09/24 07:24:29;;;;;;;;;13.67;11.67;;;;;16.40;63.40;100453.03;5038731;28;45493;-66
2022/09/24 07:26:54;;;;;;;;;4.00;4.00;;;;;16.39;64.64;100436.25;5031808;28;45396;-66
2022/09/24 07:29:19;;;;;;;;;10.00;9.33;;;;;16.45;63.43;100442.97;5052606;28;45373;-66
2022/09/24 07:31:45;;;;;;;;;10.67;10.67;;;;;16.40;64.09;100443.25;5042814;28;45669;-66
2022/09/24 07:34:10;;;;;;;;;8.67;8.67;;;;;16.40;64.14;100442.41;5058684;28;45571;-65
2022/09/24 07:36:36;;;;;;;;;7.00;5.33;;;;;16.41;64.40;100446.75;5057673;28;45473;-67
2022/09/24 07:39:01;;;;;;;;;9.33;9.33;;;;;16.50;63.80;100460.31;5057971;28;45522;-66
2022/09/24 07:41:27;;;;;;;;;7.67;7.67;;;;;16.55;63.87;100454.72;5058540;28;45493;-61
2022/09/24 07:43:54;;;;;;;;;10.67;10.67;;;;;16.55;64.04;100452.94;5057585;28;45462;-74
2022/09/24 07:46:20;;;;;;;;;9.00;8.33;;;;;16.54;63.84;100461.81;5058335;28;45517;-61
2022/09/24 07:48:47;;;;;;;;;9.67;7.00;;;;;16.56;63.32;100462.59;5057008;28;45461;-68
2022/09/24 07:51:12;;;;;;;;;9.33;9.33;;;;;16.55;63.34;100463.53;5053707;28;45644;-61
2022/09/24 07:53:38;;;;;;;;;10.67;9.33;;;;;16.52;63.21;100463.75;5056627;28;46348;-70
2022/09/24 07:56:03;;;;;;;;;9.00;8.33;;;;;16.56;64.12;100470.56;5055725;28;45427;-63
2022/09/24 07:58:29;;;;;;;;;10.67;10.00;;;;;16.55;63.87;100468.84;5055517;28;45973;-72
2022/09/24 08:01:00;;;;;;;;;15.67;13.67;;;;;16.60;65.03;100467.69;5050448;28;45527;-62
2022/09/24 08:03:26;;;;;;;;;11.00;9.00;;;;;16.57;64.30;100469.59;5036630;28;45562;-62
2022/09/24 08:05:56;;;;;;;;;8.00;8.00;;;;;16.62;64.80;100474.63;5037806;28;45341;-62
2022/09/24 08:08:21;;;;;;;;;10.00;9.33;;;;;16.63;64.20;100471.03;5020856;28;45516;-63
2022/09/24 08:10:46;;;;;;;;;10.33;9.33;;;;;16.65;64.41;100476.22;5037684;28;45488;-62
2022/09/24 08:13:12;;;;;;;;;11.00;8.67;;;;;16.62;64.24;100476.44;5037580;28;45499;-62
2022/09/24 08:15:37;;;;;;;;;9.67;8.00;;;;;16.65;63.63;100478.88;5037776;28;45470;-62
2022/09/24 08:18:04;;;;;;;;;9.33;9.00;;;;;16.66;63.69;100476.16;5038181;28;45538;-62
2022/09/24 08:20:31;;;;;;;;;6.67;6.67;;;;;16.62;64.24;100484.41;5037138;28;45503;-62
2022/09/24 08:23:01;;;;;;;;;8.00;7.00;;;;;16.62;63.13;100484.41;5036601;28;46504;-63
2022/09/24 08:25:26;;;;;;;;;5.33;5.00;;;;;16.56;64.12;100483.81;5037826;28;45474;-62
2022/09/24 08:27:51;;;;;;;;;6.00;6.00;;;;;16.58;62.69;100486.41;5057312;28;45425;-62
2022/09/24 08:30:17;;;;;;;;;8.33;5.33;;;;;16.53;63.69;100489.34;5055035;28;45553;-62
2022/09/24 08:32:48;;;;;;;;;10.00;10.00;;;;;16.50;64.09;100486.03;5048128;28;45503;-62
2022/09/24 08:35:17;;;;;;;;;8.33;7.00;;;;;16.54;63.79;100490.19;5052863;28;45329;-62
2022/09/24 08:37:43;;;;;;;;;7.67;7.67;;;;;16.54;63.58;100493.69;5041870;28;45470;-62
2022/09/24 08:40:49;;;;;;;;;7.67;7.33;;;;;16.57;63.98;100500.59;5042665;28;45404;-62
2022/09/24 08:44:05;;;;;;;;;11.67;8.00;;;;;16.53;64.45;100502.59;5020134;28;45517;-62
2022/09/24 08:49:44;;;;;;;;;8.67;8.00;;;;;16.53;63.98;100494.63;5038738;28;45573;-62
2022/09/24 08:52:47;;;;;;;;;9.00;9.00;;;;;16.60;63.93;100502.22;5043860;28;45363;-62
2022/09/24 08:55:32;;;;;;;;;7.00;7.00;;;;;16.48;63.14;100485.25;5043309;28;46190;-62
2022/09/24 08:58:11;;;;;;;;;9.33;9.33;;;;;16.59;63.61;100506.69;5036215;28;45439;-61
2022/09/24 09:00:45;;;;;;;;;11.67;10.00;;;;;16.54;63.84;100503.44;5037078;28;45457;-62
2022/09/24 09:03:46;;;;;;;;;9.00;9.00;;;;;16.52;63.56;100500.91;5037177;28;45442;-62
2022/09/24 09:06:42;;;;;;;;;12.33;11.67;;;;;16.53;64.51;100507.06;5019740;28;45564;-61
2022/09/24 09:09:13;;;;;;;;;12.33;12.33;;;;;16.53;64.33;100513.22;5036830;28;45499;-61
2022/09/24 09:11:45;;;;;;;;;12.67;12.67;;;;;16.55;64.55;100507.84;5036735;28;45442;-62
2022/09/24 09:14:19;;;;;;;;;12.00;12.00;;;;;16.61;63.86;100509.25;5048630;28;45478;-62
2022/09/24 09:17:01;;;;;;;;;12.33;12.00;;;;;16.59;64.34;100504.03;5047740;28;46090;-62
2022/09/24 09:19:32;;;;;;;;;15.33;13.33;;;;;16.64;63.90;100506.41;5056932;28;45471;-61
2022/09/24 09:22:15;;;;;;;;;12.00;12.00;;;;;16.52;64.83;100494.72;5056904;28;45476;-63
2022/09/24 09:24:47;;;;;;;;;12.67;9.33;;;;;16.60;64.11;100503.06;5050478;28;45502;-61
2022/09/24 09:27:14;;;;;;;;;13.00;11.67;;;;;16.63;64.93;100513.53;5044738;28;46089;-61
2022/09/24 09:29:41;;;;;;;;;12.00;11.33;;;;;16.67;63.86;100508.88;5037323;28;45465;-61
2022/09/24 09:32:25;;;;;;;;;11.33;11.33;;;;;16.72;64.44;100512.09;5057011;28;45378;-61
2022/09/24 09:35:10;;;;;;;;;15.33;13.00;;;;;16.71;64.75;100508.59;5056920;28;45494;-61
2022/09/24 09:37:51;;;;;;;;;13.67;13.00;;;;;16.75;64.29;100503.94;5056640;28;45923;-61
2022/09/24 09:40:31;;;;;;;;;12.00;11.00;;;;;16.84;63.90;100507.84;5056636;28;45493;-61
2022/09/24 09:43:08;;;;;;;;;11.33;11.33;;;;;16.86;64.04;100513.91;5056477;28;45323;-60
2022/09/24 09:45:54;;;;;;;;;11.00;11.00;;;;;16.84;63.36;100508.69;5056522;28;45492;-61
2022/09/24 09:48:23;;;;;;;;;11.00;10.67;;;;;16.86;62.98;100512.09;5056375;28;46260;-61
2022/09/24 09:50:58;;;;;;;;;11.67;11.67;;;;;16.85;63.02;100507.75;5055915;28;45450;-61
2022/09/24 09:53:26;;;;;;;;;14.00;14.00;;;;;16.78;63.19;100495.78;5055904;28;45514;-60
2022/09/24 09:55:58;;;;;;;;;13.00;12.67;;;;;16.90;63.39;100507.44;5056465;28;45411;-61
2022/09/24 09:58:30;;;;;;;;;9.33;9.33;;;;;16.88;62.82;100504.91;5056058;28;46165;-61
2022/09/24 10:01:03;;;;;;;;;13.00;13.00;;;;;16.93;62.87;100509.94;5055935;28;45589;-61
2022/09/24 10:03:32;;;;;;;;;14.67;13.67;;;;;16.97;63.36;100514.06;5056183;28;45482;-61
2022/09/24 10:06:00;;;;;;;;;16.00;15.00;;;;;17.02;63.31;100516.44;5056049;28;45553;-61
2022/09/24 10:08:26;;;;;;;;;13.33;13.00;;;;;17.07;63.60;100522.34;5055886;28;46391;-62
2022/09/24 10:10:56;;;;;;;;;14.67;14.00;;;;;17.07;62.77;100517.88;5055816;28;45424;-61
2022/09/24 10:13:22;;;;;;;;;13.33;10.67;;;;;17.13;63.38;100514.81;5056355;28;45481;-61
2022/09/24 10:16:00;;;;;;;;;15.67;13.67;;;;;17.14;63.06;100520.97;5055929;28;45449;-61
2022/09/24 10:18:40;;;;;;;;;13.67;13.67;;;;;17.15;63.12;100525.34;5055813;28;46185;-61
2022/09/24 10:21:10;;;;;;;;;14.67;11.67;;;;;17.17;63.43;100519.00;5055365;28;45453;-61
2022/09/24 10:23:42;;;;;;;;;14.00;12.67;;;;;17.17;62.61;100512.81;5046152;28;45561;-61
2022/09/24 10:26:09;;;;;;;;;12.00;12.00;;;;;17.23;62.79;100513.28;5052371;28;45581;-62
2022/09/24 10:31:28;;;;;;;;;11.00;11.00;;;;;17.23;62.94;100512.41;5054702;28;45384;-62
2022/09/24 10:33:56;;;;;;;;;13.00;13.00;;;;;17.29;62.79;100511.16;5035803;28;45481;-65
2022/09/24 10:36:21;;;;;;;;;12.67;12.67;;;;;17.30;62.35;100519.06;5035578;28;45451;-61
2022/09/24 10:38:48;;;;;;;;;15.00;13.67;;;;;17.30;62.15;100511.09;5035579;28;47350;-62
2022/09/24 10:41:26;;;;;;;;;17.00;15.00;;;;;17.39;62.27;100521.09;5048800;28;45446;-62
2022/09/24 10:43:53;;;;;;;;;15.00;14.00;;;;;17.44;62.04;100516.34;5052231;28;45426;-62
2022/09/24 10:46:40;;;;;;;;;17.33;15.67;;;;;17.47;61.97;100517.94;5034316;28;45476;-62
2022/09/24 10:49:53;;;;;;;;;19.00;15.33;;;;;17.51;61.73;100523.91;5035354;28;46546;-61
2022/09/24 10:52:46;;;;;;;;;18.67;15.00;;;;;17.54;61.91;100515.72;4954004;28;45449;-62
2022/09/24 10:55:37;;;;;;;;;19.00;15.67;;;;;17.54;62.11;100521.91;4973933;28;45448;-62
2022/09/24 10:58:29;;;;;;;;;15.00;15.00;;;;;17.55;62.03;100506.81;5031465;28;45482;-62
2022/09/24 11:01:02;;;;;;;;;16.00;16.00;;;;;17.57;61.88;100512.88;5055334;28;46247;-62
2022/09/24 11:03:34;;;;;;;;;16.00;14.67;;;;;17.59;62.03;100511.81;5055311;28;45558;-62
2022/09/24 11:06:25;;;;;;;;;14.00;13.33;;;;;17.63;61.84;100516.00;5054692;28;45394;-62
2022/09/24 11:09:05;;;;;;;;;16.00;15.00;;;;;17.67;61.84;100519.28;5054889;28;45489;-62
2022/09/24 11:11:49;;;;;;;;;17.33;17.33;;;;;17.70;60.94;100521.75;5055150;28;46326;-62
2022/09/24 11:14:29;;;;;;;;;14.33;12.67;;;;;17.68;61.23;100515.69;5054249;28;45402;-62
2022/09/24 11:17:15;;;;;;;;;20.67;17.67;;;;;17.81;61.25;100523.72;5054113;28;45539;-62
2022/09/24 11:20:06;;;;;;;;;15.00;15.00;;;;;17.91;61.05;100518.66;5054456;28;45395;-62
2022/09/24 11:22:38;;;;;;;;;17.33;15.33;;;;;18.01;60.42;100525.06;5050096;28;46601;-62
2022/09/24 11:25:31;;;;;;;;;18.67;16.33;;;;;18.08;60.69;100521.88;5054861;28;45420;-62
2022/09/24 11:28:21;;;;;;;;;17.33;16.00;;;;;18.16;59.71;100524.03;5035873;28;45343;-62
2022/09/24 11:30:54;;;;;;;;;22.33;22.33;;;;;18.24;59.57;100526.13;5036121;28;45517;-62
2022/09/24 11:33:25;;;;;;;;;17.00;17.00;;;;;18.28;58.89;100512.53;5054774;28;45415;-63
2022/09/24 11:36:05;;;;;;;;;17.33;17.33;;;;;18.29;59.42;100524.84;5055738;28;45429;-63
2022/09/24 11:39:04;;;;;;;;;20.00;19.00;;;;;18.26;59.46;100519.75;5058219;28;45339;-62
2022/09/24 11:42:09;;;;;;;;;19.00;16.33;;;;;18.25;58.84;100518.06;5057947;28;45392;-61
2022/09/24 11:45:15;;;;;;;;;16.00;16.00;;;;;18.20;59.18;100508.69;5033338;28;45488;-62
2022/09/24 11:48:02;;;;;;;;;21.67;19.33;;;;;18.22;58.86;100507.63;5052133;28;45494;-64